Port Lions, AK (99550)

9:19 PM AKDT on July 06, 2015 (GMT -0800)
Kodiak | | Change Station
CLOSE
Current Station
Airport
Location: Kodiak,
Elevation: 112 ft
Nearby Weather Stations

Elev 112 ft 57.75 °N, 152.49 °W | Updated 26 minutes ago

Mostly Cloudy
Mostly Cloudy
57 °F
Feels Like 57 °F
N
6
Wind Variable Wind from SSE

Today
High -- | Low -- °F
--% Chance of Precip.
Yesterday
High -- | Low -- °F
Precip. -- in
5:21 AM 11:12 PM
Waning Gibbous, 68% visible
Pressure 29.87 in
Visibility 10.0 miles
Clouds Few 600 ft
Mostly Cloudy 2200 ft
Mostly Cloudy 4700 ft
Dew Point 54 °F
Humidity 89%
Rainfall 1.60 in
Snow Depth Not available.
UV 0 out of 12
Pollen Not available.
Air Quality Not available.
Flu Activity Not available.
METAR PADQ 070453Z 15005KT 10SM FEW006 BKN022 BKN047 14/12 A2986 RMK AO2 SLP113 T01390122

More Conditions Fewer Conditions

Pressure 29.87 in
Visibility 10.0 miles
Clouds Few 600 ft
Mostly Cloudy 2200 ft
Mostly Cloudy 4700 ft
Dew Point 54 °F
Humidity 89%
Rainfall 1.60 in
Snow Depth Not available.
UV 0 out of 12
Pollen Not available.
Air Quality Not available.
Flu Activity Not available.
METAR PADQ 070453Z 15005KT 10SM FEW006 BKN022 BKN047 14/12 A2986 RMK AO2 SLP113 T01390122

More Conditions Fewer Conditions

10-Day Weather Forecast

×

Almanac

Astronomy

Jul. 06, 2015 Rise Set
Actual Time
Civil Twilight
Nautical Twilight
Astronomical Twilight
Moon
Length of Visible Light
Length of Day
Tomorrow will be .
, % of the Moon is Illuminated

Today's Extremes

State Highs State Lows

Community

WunderPhotos

Upload Photos

1,835,731 photos uploaded!

WunderBlogs® & News

Nearby

Air Quality

  Air Quality AQ Index Pollutant
Not available.

Snow Depth

Station Depth Elevation

Earthquake Activity

City Distance Mag. Time & Date
Minimum magnitude displayed is 2.5.

Coastal Water Temperatures

Place Temperature

Stations

Nearby Weather Stations

Station Location Temp. Windchill Dew Point Humidity Wind Precip. Elev Updated Type